Decoursey, Kentucky
Current Conditions -  °F | °C
As of 1:57 AM on Monday 24 Nov 2014 (Local Time) from KI69 Reporting Station
Overcast Overcast  
Wind Chill: 59°   Ceiling: 1300
Heat Index: 59°   Visibility: 10mi
Dew Point: 57°   Wind: 16mph
Humidity: 94%   Direction: 230°SW
Pressure: 29.33"   Gusts: 25mph
Location:  39.0659°N, 84.5309°W
Report Text: KI69 240657Z AUTO 23014G22KT 10SM OVC013 15/14 A2933 RMK AO1 P0001
Loading
Personal Weather Stations






























Interactive Weather Map New forecast layout! Learn more

10-Day Weather Forecast

Advertisements
Track Severe Weather on mobile